Bonaire, Georgia
Current Conditions -  °F | °C
As of 4:58 AM on Friday 31 Oct 2014 (Local Time) from KWRB Reporting Station
Scattered Clouds Scattered Clouds  
Wind Chill: 45°   Ceiling: Unl
Heat Index: 45°   Visibility: 10mi
Dew Point: 43°   Wind: 1mph
Humidity: 93%   Direction: 100°E
Pressure: 29.92"   Gusts: NA
Location:  32.54°N, 83.6°W
Report Text: KWRB 310858Z AUTO 10001KT 10SM SCT190 07/06 A2992 RMK AO2 SLP134 T00700060 57006
Loading
Personal Weather Stations






























Interactive Weather Map
Tropical Storm Tracking
New forecast layout! Learn more

10-Day Weather Forecast

Advertisements
Track Severe Weather on mobile